sensor_id;sensor_type;location;lat;lon;timestamp;pressure;altitude;pressure_sealevel;temperature;humidity
57572;BME280;44459;43.522;24.470;2023-03-16T00:01:09;99314.00;;;6.94;97.19
57572;BME280;44459;43.522;24.470;2023-03-16T00:03:35;99309.63;;;6.94;96.81
57572;BME280;44459;43.522;24.470;2023-03-16T00:06:01;99299.94;;;6.81;96.55
57572;BME280;44459;43.522;24.470;2023-03-16T00:08:26;99304.31;;;6.82;96.54
57572;BME280;44459;43.522;24.470;2023-03-16T00:10:52;99305.19;;;6.80;96.20
57572;BME280;44459;43.522;24.470;2023-03-16T00:13:20;99314.78;;;6.78;95.95
57572;BME280;44459;43.522;24.470;2023-03-16T00:15:57;99308.63;;;6.74;95.79
57572;BME280;44459;43.522;24.470;2023-03-16T00:18:25;99307.78;;;6.75;95.17
57572;BME280;44459;43.522;24.470;2023-03-16T00:20:56;99306.84;;;6.67;95.20
57572;BME280;44459;43.522;24.470;2023-03-16T00:23:22;99325.25;;;6.73;94.50
57572;BME280;44459;43.522;24.470;2023-03-16T00:25:56;99318.22;;;6.69;94.25
57572;BME280;44459;43.522;24.470;2023-03-16T00:28:23;99333.94;;;6.68;94.28
57572;BME280;44459;43.522;24.470;2023-03-16T00:30:49;99328.69;;;6.65;93.78
57572;BME280;44459;43.522;24.470;2023-03-16T00:33:14;99327.75;;;6.59;93.17
57572;BME280;44459;43.522;24.470;2023-03-16T00:35:40;99338.25;;;6.58;93.26
57572;BME280;44459;43.522;24.470;2023-03-16T00:38:18;99341.72;;;6.52;92.95
57572;BME280;44459;43.522;24.470;2023-03-16T00:40:45;99348.66;;;6.47;92.35
57572;BME280;44459;43.522;24.470;2023-03-16T00:43:11;99347.69;;;6.39;92.64
57572;BME280;44459;43.522;24.470;2023-03-16T00:45:37;99345.88;;;6.29;92.66
57572;BME280;44459;43.522;24.470;2023-03-16T00:48:02;99342.38;;;6.27;92.01
57572;BME280;44459;43.522;24.470;2023-03-16T00:50:28;99351.97;;;6.27;91.92
57572;BME280;44459;43.522;24.470;2023-03-16T00:52:53;99359.72;;;6.16;92.00
57572;BME280;44459;43.522;24.470;2023-03-16T00:55:19;99372.81;;;6.13;92.04
57572;BME280;44459;43.522;24.470;2023-03-16T00:57:45;99365.78;;;6.09;92.25
57572;BME280;44459;43.522;24.470;2023-03-16T01:00:11;99372.72;;;6.05;92.07
57572;BME280;44459;43.522;24.470;2023-03-16T01:02:40;99384.13;;;6.12;91.75
57572;BME280;44459;43.522;24.470;2023-03-16T01:05:06;99390.19;;;6.06;91.89
57572;BME280;44459;43.522;24.470;2023-03-16T01:07:32;99386.59;;;5.95;91.93
57572;BME280;44459;43.522;24.470;2023-03-16T01:10:00;99393.63;;;6.01;91.74
57572;BME280;44459;43.522;24.470;2023-03-16T01:12:25;99397.03;;;5.92;91.85
57572;BME280;44459;43.522;24.470;2023-03-16T01:14:52;99406.50;;;5.83;92.02
57572;BME280;44459;43.522;24.470;2023-03-16T01:17:17;99409.97;;;5.83;91.97
57572;BME280;44459;43.522;24.470;2023-03-16T01:19:43;99412.63;;;5.85;91.34
57572;BME280;44459;43.522;24.470;2023-03-16T01:22:10;99420.38;;;5.76;91.78
57572;BME280;44459;43.522;24.470;2023-03-16T01:24:37;99421.16;;;5.70;92.36
57572;BME280;44459;43.522;24.470;2023-03-16T01:27:04;99417.66;;;5.70;92.43
57572;BME280;44459;43.522;24.470;2023-03-16T01:29:30;99409.78;;;5.67;92.24
57572;BME280;44459;43.522;24.470;2023-03-16T01:31:56;99407.94;;;5.58;92.47
57572;BME280;44459;43.522;24.470;2023-03-16T01:34:21;99408.75;;;5.54;92.66
57572;BME280;44459;43.522;24.470;2023-03-16T01:36:48;99413.16;;;5.55;91.99
57572;BME280;44459;43.522;24.470;2023-03-16T01:39:14;99413.91;;;5.48;91.98
57572;BME280;44459;43.522;24.470;2023-03-16T01:41:41;99411.25;;;5.45;92.22
57572;BME280;44459;43.522;24.470;2023-03-16T01:44:19;99412.03;;;5.39;92.32
57572;BME280;44459;43.522;24.470;2023-03-16T01:46:46;99414.53;;;5.29;92.48
57572;BME280;44459;43.522;24.470;2023-03-16T01:49:25;99409.31;;;5.32;92.22
57572;BME280;44459;43.522;24.470;2023-03-16T01:54:34;99427.69;;;5.35;92.17
57572;BME280;44459;43.522;24.470;2023-03-16T01:57:14;99436.44;;;5.37;92.34
57572;BME280;44459;43.522;24.470;2023-03-16T01:59:50;99446.03;;;5.36;92.29
57572;BME280;44459;43.522;24.470;2023-03-16T02:02:19;99443.44;;;5.38;92.28
57572;BME280;44459;43.522;24.470;2023-03-16T02:04:48;99452.25;;;5.44;91.62
57572;BME280;44459;43.522;24.470;2023-03-16T02:07:16;99460.91;;;5.42;91.68
57572;BME280;44459;43.522;24.470;2023-03-16T02:09:45;99460.91;;;5.42;91.67
57572;BME280;44459;43.522;24.470;2023-03-16T02:12:13;99469.56;;;5.36;91.88
57572;BME280;44459;43.522;24.470;2023-03-16T02:14:48;99482.66;;;5.36;92.32
57572;BME280;44459;43.522;24.470;2023-03-16T02:17:15;99481.00;;;5.43;92.04
57572;BME280;44459;43.522;24.470;2023-03-16T02:22:17;99493.25;;;5.45;92.36
57572;BME280;44459;43.522;24.470;2023-03-16T02:24:43;99485.41;;;5.45;92.21
57572;BME280;44459;43.522;24.470;2023-03-16T02:27:12;99482.00;;;5.51;92.14
57572;BME280;44459;43.522;24.470;2023-03-16T02:32:17;99482.75;;;5.41;92.52
57572;BME280;44459;43.522;24.470;2023-03-16T02:34:44;99481.84;;;5.42;92.56
57572;BME280;44459;43.522;24.470;2023-03-16T02:37:09;99480.13;;;5.41;93.07
57572;BME280;44459;43.522;24.470;2023-03-16T02:39:36;99475.78;;;5.41;92.80
57572;BME280;44459;43.522;24.470;2023-03-16T02:42:01;99477.44;;;5.36;92.30
57572;BME280;44459;43.522;24.470;2023-03-16T02:44:32;99477.47;;;5.38;92.20
57572;BME280;44459;43.522;24.470;2023-03-16T02:47:02;99481.69;;;5.31;92.46
57572;BME280;44459;43.522;24.470;2023-03-16T02:49:35;99475.53;;;5.28;92.37
57572;BME280;44459;43.522;24.470;2023-03-16T02:52:02;99483.34;;;5.25;92.02
57572;BME280;44459;43.522;24.470;2023-03-16T02:54:28;99483.25;;;5.19;92.29
57572;BME280;44459;43.522;24.470;2023-03-16T02:56:53;99483.19;;;5.13;92.53
57572;BME280;44459;43.522;24.470;2023-03-16T02:59:19;99489.25;;;5.12;92.76
57572;BME280;44459;43.522;24.470;2023-03-16T03:01:44;99497.09;;;5.12;92.14
57572;BME280;44459;43.522;24.470;2023-03-16T03:04:09;99487.41;;;5.04;91.71
57572;BME280;44459;43.522;24.470;2023-03-16T03:06:35;99486.50;;;5.02;91.41
57572;BME280;44459;43.522;24.470;2023-03-16T03:09:00;99492.50;;;4.95;91.56
57572;BME280;44459;43.522;24.470;2023-03-16T03:11:27;99498.47;;;4.90;92.11
57572;BME280;44459;43.522;24.470;2023-03-16T03:13:53;99501.31;;;5.02;92.31
57572;BME280;44459;43.522;24.470;2023-03-16T03:16:19;99515.25;;;5.01;91.60
57572;BME280;44459;43.522;24.470;2023-03-16T03:18:45;99512.53;;;4.96;91.68
57572;BME280;44459;43.522;24.470;2023-03-16T03:21:11;99515.09;;;4.92;91.87
57572;BME280;44459;43.522;24.470;2023-03-16T03:23:36;99521.09;;;4.86;91.40
57572;BME280;44459;43.522;24.470;2023-03-16T03:26:02;99528.06;;;4.86;91.10
57572;BME280;44459;43.522;24.470;2023-03-16T03:28:28;99522.75;;;4.81;91.73
57572;BME280;44459;43.522;24.470;2023-03-16T03:30:54;99535.94;;;4.87;91.62
57572;BME280;44459;43.522;24.470;2023-03-16T03:33:20;99527.16;;;4.82;91.76
57572;BME280;44459;43.522;24.470;2023-03-16T03:35:47;99535.03;;;4.85;91.18
57572;BME280;44459;43.522;24.470;2023-03-16T03:38:17;99535.00;;;4.84;91.66
57572;BME280;44459;43.522;24.470;2023-03-16T03:40:43;99541.84;;;4.77;91.96
57572;BME280;44459;43.522;24.470;2023-03-16T03:43:08;99542.78;;;4.81;92.15
57572;BME280;44459;43.522;24.470;2023-03-16T03:45:33;99540.19;;;4.81;91.55
57572;BME280;44459;43.522;24.470;2023-03-16T03:47:59;99544.47;;;4.77;92.31
57572;BME280;44459;43.522;24.470;2023-03-16T03:50:24;99551.41;;;4.75;92.83
57572;BME280;44459;43.522;24.470;2023-03-16T03:52:50;99555.78;;;4.76;93.26
57572;BME280;44459;43.522;24.470;2023-03-16T03:55:15;99564.53;;;4.78;92.80
57572;BME280;44459;43.522;24.470;2023-03-16T03:57:40;99565.34;;;4.74;92.66
57572;BME280;44459;43.522;24.470;2023-03-16T04:00:07;99566.06;;;4.69;92.25
57572;BME280;44459;43.522;24.470;2023-03-16T04:02:35;99569.47;;;4.63;92.63
57572;BME280;44459;43.522;24.470;2023-03-16T04:05:00;99581.66;;;4.61;92.82
57572;BME280;44459;43.522;24.470;2023-03-16T04:07:25;99579.88;;;4.60;92.32
57572;BME280;44459;43.522;24.470;2023-03-16T04:09:51;99577.16;;;4.55;92.61
57572;BME280;44459;43.522;24.470;2023-03-16T04:12:16;99571.88;;;4.51;92.10
57572;BME280;44459;43.522;24.470;2023-03-16T04:14:42;99584.00;;;4.49;92.29
57572;BME280;44459;43.522;24.470;2023-03-16T04:17:07;99591.97;;;4.55;92.56
57572;BME280;44459;43.522;24.470;2023-03-16T04:19:33;99587.56;;;4.52;92.29
57572;BME280;44459;43.522;24.470;2023-03-16T04:21:58;99593.41;;;4.39;92.49
57572;BME280;44459;43.522;24.470;2023-03-16T04:24:24;99604.84;;;4.46;92.62
57572;BME280;44459;43.522;24.470;2023-03-16T04:26:49;99599.63;;;4.46;92.31
57572;BME280;44459;43.522;24.470;2023-03-16T04:29:15;99609.03;;;4.38;92.85
57572;BME280;44459;43.522;24.470;2023-03-16T04:31:44;99614.31;;;4.41;92.61
57572;BME280;44459;43.522;24.470;2023-03-16T04:34:11;99609.97;;;4.40;93.15
57572;BME280;44459;43.522;24.470;2023-03-16T04:36:37;99616.09;;;4.42;93.02
57572;BME280;44459;43.522;24.470;2023-03-16T04:39:06;99616.03;;;4.39;93.48
57572;BME280;44459;43.522;24.470;2023-03-16T04:41:32;99616.88;;;4.38;94.09
57572;BME280;44459;43.522;24.470;2023-03-16T04:43:57;99612.53;;;4.37;94.13
57572;BME280;44459;43.522;24.470;2023-03-16T04:46:24;99615.03;;;4.32;94.99
57572;BME280;44459;43.522;24.470;2023-03-16T04:48:51;99613.34;;;4.36;94.81
57572;BME280;44459;43.522;24.470;2023-03-16T04:51:16;99621.97;;;4.32;95.04
57572;BME280;44459;43.522;24.470;2023-03-16T04:53:42;99625.31;;;4.25;96.05
57572;BME280;44459;43.522;24.470;2023-03-16T04:56:09;99633.16;;;4.25;95.81
57572;BME280;44459;43.522;24.470;2023-03-16T04:58:43;99633.88;;;4.18;96.23
57572;BME280;44459;43.522;24.470;2023-03-16T05:01:08;99640.78;;;4.16;96.39
57572;BME280;44459;43.522;24.470;2023-03-16T05:03:33;99647.75;;;4.17;97.22
57572;BME280;44459;43.522;24.470;2023-03-16T05:05:59;99653.78;;;4.13;96.94
57572;BME280;44459;43.522;24.470;2023-03-16T05:08:25;99658.06;;;4.11;96.92
57572;BME280;44459;43.522;24.470;2023-03-16T05:10:50;99659.91;;;4.15;97.22
57572;BME280;44459;43.522;24.470;2023-03-16T05:13:16;99651.97;;;4.10;97.52
57572;BME280;44459;43.522;24.470;2023-03-16T05:15:41;99656.25;;;4.06;97.18
57572;BME280;44459;43.522;24.470;2023-03-16T05:18:07;99664.88;;;4.02;97.53
57572;BME280;44459;43.522;24.470;2023-03-16T05:20:32;99659.59;;;4.01;97.84
57572;BME280;44459;43.522;24.470;2023-03-16T05:22:57;99660.19;;;3.89;98.27
57572;BME280;44459;43.522;24.470;2023-03-16T05:25:23;99679.44;;;3.93;98.37
57572;BME280;44459;43.522;24.470;2023-03-16T05:27:52;99680.38;;;3.95;99.05
57572;BME280;44459;43.522;24.470;2023-03-16T05:30:21;99681.00;;;3.86;98.59
57572;BME280;44459;43.522;24.470;2023-03-16T05:32:46;99696.78;;;3.91;99.00
57572;BME280;44459;43.522;24.470;2023-03-16T05:35:12;99686.38;;;3.92;98.89
57572;BME280;44459;43.522;24.470;2023-03-16T05:37:39;99683.75;;;3.91;99.00
57572;BME280;44459;43.522;24.470;2023-03-16T05:40:06;99688.00;;;3.87;98.84
57572;BME280;44459;43.522;24.470;2023-03-16T05:42:42;99691.53;;;3.89;100.00
57572;BME280;44459;43.522;24.470;2023-03-16T05:45:08;99691.53;;;3.89;100.00
57572;BME280;44459;43.522;24.470;2023-03-16T05:47:33;99694.91;;;3.85;100.00
57572;BME280;44459;43.522;24.470;2023-03-16T05:50:02;99696.56;;;3.82;100.00
57572;BME280;44459;43.522;24.470;2023-03-16T05:52:27;99714.03;;;3.84;100.00
57572;BME280;44459;43.522;24.470;2023-03-16T05:54:53;99716.59;;;3.83;100.00
57572;BME280;44459;43.522;24.470;2023-03-16T05:57:18;99719.13;;;3.78;100.00
57572;BME280;44459;43.522;24.470;2023-03-16T05:59:44;99715.66;;;3.79;100.00
57572;BME280;44459;43.522;24.470;2023-03-16T06:02:10;99720.66;;;3.70;100.00
57572;BME280;44459;43.522;24.470;2023-03-16T06:04:35;99718.75;;;3.65;100.00
57572;BME280;44459;43.522;24.470;2023-03-16T06:07:01;99720.59;;;3.67;100.00
57572;BME280;44459;43.522;24.470;2023-03-16T06:09:26;99725.59;;;3.60;100.00
57572;BME280;44459;43.522;24.470;2023-03-16T06:11:52;99729.97;;;3.61;100.00
57572;BME280;44459;43.522;24.470;2023-03-16T06:14:17;99731.66;;;3.59;100.00
57572;BME280;44459;43.522;24.470;2023-03-16T06:16:43;99723.88;;;3.60;100.00
57572;BME280;44459;43.522;24.470;2023-03-16T06:19:08;99742.94;;;3.58;100.00
57572;BME280;44459;43.522;24.470;2023-03-16T06:21:34;99743.63;;;3.50;100.00
57572;BME280;44459;43.522;24.470;2023-03-16T06:23:59;99751.50;;;3.52;100.00
57572;BME280;44459;43.522;24.470;2023-03-16T06:26:25;99758.44;;;3.51;100.00
57572;BME280;44459;43.522;24.470;2023-03-16T06:28:51;99750.50;;;3.47;100.00
57572;BME280;44459;43.522;24.470;2023-03-16T06:31:16;99749.50;;;3.42;100.00
57572;BME280;44459;43.522;24.470;2023-03-16T06:33:42;99759.19;;;3.47;100.00
57572;BME280;44459;43.522;24.470;2023-03-16T06:36:07;99758.47;;;3.53;100.00
57572;BME280;44459;43.522;24.470;2023-03-16T06:38:33;99765.38;;;3.51;100.00
57572;BME280;44459;43.522;24.470;2023-03-16T06:40:58;99761.84;;;3.49;100.00
57572;BME280;44459;43.522;24.470;2023-03-16T06:43:24;99760.06;;;3.46;100.00
57572;BME280;44459;43.522;24.470;2023-03-16T06:45:50;99764.38;;;3.46;100.00
57572;BME280;44459;43.522;24.470;2023-03-16T06:48:15;99768.56;;;3.41;100.00
57572;BME280;44459;43.522;24.470;2023-03-16T06:50:40;99780.66;;;3.37;100.00
57572;BME280;44459;43.522;24.470;2023-03-16T06:53:06;99784.16;;;3.38;100.00
57572;BME280;44459;43.522;24.470;2023-03-16T06:55:31;99785.13;;;3.41;100.00
57572;BME280;44459;43.522;24.470;2023-03-16T06:57:58;99782.50;;;3.40;100.00
57572;BME280;44459;43.522;24.470;2023-03-16T07:00:23;99796.22;;;3.34;100.00
57572;BME280;44459;43.522;24.470;2023-03-16T07:02:49;99797.88;;;3.31;100.00
57572;BME280;44459;43.522;24.470;2023-03-16T07:05:15;99804.94;;;3.35;100.00
57572;BME280;44459;43.522;24.470;2023-03-16T07:07:42;99810.88;;;3.29;100.00
57572;BME280;44459;43.522;24.470;2023-03-16T07:10:13;99808.88;;;3.21;100.00
57572;BME280;44459;43.522;24.470;2023-03-16T07:12:39;99823.69;;;3.22;100.00
57572;BME280;44459;43.522;24.470;2023-03-16T07:15:04;99825.28;;;3.17;100.00
57572;BME280;44459;43.522;24.470;2023-03-16T07:17:30;99828.09;;;3.23;100.00
57572;BME280;44459;43.522;24.470;2023-03-16T07:19:56;99827.13;;;3.21;100.00
57572;BME280;44459;43.522;24.470;2023-03-16T07:22:22;99831.44;;;3.19;100.00
57572;BME280;44459;43.522;24.470;2023-03-16T07:24:47;99826.97;;;3.15;100.00
57572;BME280;44459;43.522;24.470;2023-03-16T07:27:20;99840.19;;;3.21;100.00
57572;BME280;44459;43.522;24.470;2023-03-16T07:29:47;99846.13;;;3.15;100.00
57572;BME280;44459;43.522;24.470;2023-03-16T07:32:13;99848.72;;;3.15;100.00
57572;BME280;44459;43.522;24.470;2023-03-16T07:34:38;99853.19;;;3.19;100.00
57572;BME280;44459;43.522;24.470;2023-03-16T07:37:04;99857.69;;;3.25;100.00
57572;BME280;44459;43.522;24.470;2023-03-16T07:39:29;99860.38;;;3.28;100.00
57572;BME280;44459;43.522;24.470;2023-03-16T07:41:55;99860.38;;;3.28;100.00
57572;BME280;44459;43.522;24.470;2023-03-16T07:44:21;99860.22;;;3.22;100.00
57572;BME280;44459;43.522;24.470;2023-03-16T07:46:46;99869.94;;;3.27;100.00
57572;BME280;44459;43.522;24.470;2023-03-16T07:49:12;99867.28;;;3.26;100.00
57572;BME280;44459;43.522;24.470;2023-03-16T07:51:38;99870.66;;;3.23;100.00
57572;BME280;44459;43.522;24.470;2023-03-16T07:54:03;99874.09;;;3.21;100.00
57572;BME280;44459;43.522;24.470;2023-03-16T07:56:29;99872.13;;;3.14;100.00
57572;BME280;44459;43.522;24.470;2023-03-16T07:58:54;99879.06;;;3.13;100.00
57572;BME280;44459;43.522;24.470;2023-03-16T08:01:20;99885.25;;;3.17;100.00
57572;BME280;44459;43.522;24.470;2023-03-16T08:03:46;99886.94;;;3.15;100.00
57572;BME280;44459;43.522;24.470;2023-03-16T08:06:12;99895.56;;;3.12;100.00
57572;BME280;44459;43.522;24.470;2023-03-16T08:08:37;99889.56;;;3.15;100.00
57572;BME280;44459;43.522;24.470;2023-03-16T08:11:03;99896.72;;;3.22;100.00
57572;BME280;44459;43.522;24.470;2023-03-16T08:13:28;99895.13;;;3.27;100.00
57572;BME280;44459;43.522;24.470;2023-03-16T08:15:54;99900.34;;;3.27;100.00
57572;BME280;44459;43.522;24.470;2023-03-16T08:18:24;99909.19;;;3.32;100.00
57572;BME280;44459;43.522;24.470;2023-03-16T08:20:50;99915.38;;;3.35;100.00
57572;BME280;44459;43.522;24.470;2023-03-16T08:23:15;99907.72;;;3.40;100.00
57572;BME280;44459;43.522;24.470;2023-03-16T08:25:41;99913.91;;;3.45;100.00
57572;BME280;44459;43.522;24.470;2023-03-16T08:28:07;99918.44;;;3.50;100.00
57572;BME280;44459;43.522;24.470;2023-03-16T08:30:34;99921.91;;;3.51;100.00
57572;BME280;44459;43.522;24.470;2023-03-16T08:33:00;99931.50;;;3.50;100.00
57572;BME280;44459;43.522;24.470;2023-03-16T08:35:28;99929.81;;;3.52;100.00
57572;BME280;44459;43.522;24.470;2023-03-16T08:37:54;99926.47;;;3.58;100.00
57572;BME280;44459;43.522;24.470;2023-03-16T08:40:19;99934.63;;;3.69;100.00
57572;BME280;44459;43.522;24.470;2023-03-16T08:42:49;99924.22;;;3.70;100.00
57572;BME280;44459;43.522;24.470;2023-03-16T08:45:15;99932.94;;;3.71;100.00
57572;BME280;44459;43.522;24.470;2023-03-16T08:47:42;99938.19;;;3.72;100.00
57572;BME280;44459;43.522;24.470;2023-03-16T08:50:10;99931.31;;;3.74;100.00
57572;BME280;44459;43.522;24.470;2023-03-16T08:52:37;99937.59;;;3.82;100.00
57572;BME280;44459;43.522;24.470;2023-03-16T08:55:04;99939.25;;;3.79;100.00
57572;BME280;44459;43.522;24.470;2023-03-16T08:57:31;99938.47;;;3.81;100.00
57572;BME280;44459;43.522;24.470;2023-03-16T08:59:57;99943.78;;;3.84;100.00
57572;BME280;44459;43.522;24.470;2023-03-16T09:02:23;99932.38;;;3.81;100.00
57572;BME280;44459;43.522;24.470;2023-03-16T09:04:49;99945.53;;;3.85;100.00
57572;BME280;44459;43.522;24.470;2023-03-16T09:07:15;99950.84;;;3.88;100.00
57572;BME280;44459;43.522;24.470;2023-03-16T09:09:41;99951.78;;;3.90;100.00
57572;BME280;44459;43.522;24.470;2023-03-16T09:12:06;99958.56;;;3.85;100.00
57572;BME280;44459;43.522;24.470;2023-03-16T09:14:32;99955.03;;;3.83;100.00
57572;BME280;44459;43.522;24.470;2023-03-16T09:16:58;99962.06;;;3.84;100.00
57572;BME280;44459;43.522;24.470;2023-03-16T09:19:23;99966.53;;;3.90;100.00
57572;BME280;44459;43.522;24.470;2023-03-16T09:21:49;99964.75;;;3.89;100.00
57572;BME280;44459;43.522;24.470;2023-03-16T09:24:15;99958.69;;;3.88;100.00
57572;BME280;44459;43.522;24.470;2023-03-16T09:26:41;99956.16;;;3.91;100.00
57572;BME280;44459;43.522;24.470;2023-03-16T09:29:08;99957.91;;;3.92;100.00
57572;BME280;44459;43.522;24.470;2023-03-16T09:31:33;99967.66;;;3.98;100.00
57572;BME280;44459;43.522;24.470;2023-03-16T09:34:00;99978.19;;;4.01;100.00
57572;BME280;44459;43.522;24.470;2023-03-16T09:36:26;99978.25;;;4.04;100.00
57572;BME280;44459;43.522;24.470;2023-03-16T09:38:52;99975.88;;;4.12;100.00
57572;BME280;44459;43.522;24.470;2023-03-16T09:46:26;99986.44;;;4.16;100.00
57572;BME280;44459;43.522;24.470;2023-03-16T09:48:54;99990.72;;;4.14;100.00
57572;BME280;44459;43.522;24.470;2023-03-16T09:53:54;99994.28;;;4.16;100.00
57572;BME280;44459;43.522;24.470;2023-03-16T09:56:36;100001.09;;;4.11;100.00
57572;BME280;44459;43.522;24.470;2023-03-16T09:59:11;100005.50;;;4.14;100.00
57572;BME280;44459;43.522;24.470;2023-03-16T10:01:57;99996.69;;;4.09;100.00
57572;BME280;44459;43.522;24.470;2023-03-16T10:04:41;99996.50;;;4.02;100.00
57572;BME280;44459;43.522;24.470;2023-03-16T10:09:56;100008.53;;;3.97;100.00
57572;BME280;44459;43.522;24.470;2023-03-16T10:12:30;100013.00;;;4.01;100.00
57572;BME280;44459;43.522;24.470;2023-03-16T10:15:13;99998.19;;;4.00;100.00
57572;BME280;44459;43.522;24.470;2023-03-16T10:17:51;100013.03;;;4.03;100.00
57572;BME280;44459;43.522;24.470;2023-03-16T10:20:20;100009.47;;;3.99;100.00
57572;BME280;44459;43.522;24.470;2023-03-16T10:22:48;100013.09;;;4.04;100.00
57572;BME280;44459;43.522;24.470;2023-03-16T10:25:18;100012.34;;;4.09;100.00
57572;BME280;44459;43.522;24.470;2023-03-16T10:27:45;100008.19;;;4.15;100.00
57572;BME280;44459;43.522;24.470;2023-03-16T10:30:18;100006.63;;;4.22;100.00
57572;BME280;44459;43.522;24.470;2023-03-16T10:32:45;100004.91;;;4.22;100.00
57572;BME280;44459;43.522;24.470;2023-03-16T10:37:40;100005.78;;;4.23;100.00
57572;BME280;44459;43.522;24.470;2023-03-16T10:40:07;100013.03;;;4.33;100.00
57572;BME280;44459;43.522;24.470;2023-03-16T10:42:35;100013.94;;;4.35;100.00
57572;BME280;44459;43.522;24.470;2023-03-16T10:45:01;100017.53;;;4.38;100.00
57572;BME280;44459;43.522;24.470;2023-03-16T10:47:30;100015.88;;;4.42;100.00
57572;BME280;44459;43.522;24.470;2023-03-16T10:49:56;100012.44;;;4.43;100.00
57572;BME280;44459;43.522;24.470;2023-03-16T10:54:58;100014.31;;;4.48;100.00
57572;BME280;44459;43.522;24.470;2023-03-16T10:57:32;100020.41;;;4.49;100.00
57572;BME280;44459;43.522;24.470;2023-03-16T11:00:06;100024.66;;;4.44;100.00
57572;BME280;44459;43.522;24.470;2023-03-16T11:02:33;100008.94;;;4.42;100.00
57572;BME280;44459;43.522;24.470;2023-03-16T11:05:30;100008.03;;;4.42;100.00
57572;BME280;44459;43.522;24.470;2023-03-16T11:08:06;100023.97;;;4.51;100.00
57572;BME280;44459;43.522;24.470;2023-03-16T11:10:38;100015.94;;;4.45;100.00
57572;BME280;44459;43.522;24.470;2023-03-16T11:15:46;100026.59;;;4.51;100.00
57572;BME280;44459;43.522;24.470;2023-03-16T11:18:27;100016.09;;;4.49;100.00
57572;BME280;44459;43.522;24.470;2023-03-16T11:20:55;100016.28;;;4.57;100.00
57572;BME280;44459;43.522;24.470;2023-03-16T11:23:29;100020.75;;;4.61;100.00
57572;BME280;44459;43.522;24.470;2023-03-16T11:25:58;100026.81;;;4.60;100.00
57572;BME280;44459;43.522;24.470;2023-03-16T11:28:39;100030.41;;;4.64;100.00
57572;BME280;44459;43.522;24.470;2023-03-16T11:31:25;100025.19;;;4.65;100.00
57572;BME280;44459;43.522;24.470;2023-03-16T11:33:56;100024.28;;;4.63;100.00
57572;BME280;44459;43.522;24.470;2023-03-16T11:36:41;100036.59;;;4.67;100.00
57572;BME280;44459;43.522;24.470;2023-03-16T11:42:15;100019.28;;;4.72;99.66
57572;BME280;44459;43.522;24.470;2023-03-16T11:53:45;100026.50;;;4.81;99.62
57572;BME280;44459;43.522;24.470;2023-03-16T12:08:01;100036.25;;;4.88;99.83
57572;BME280;44459;43.522;24.470;2023-03-16T12:15:44;100037.16;;;4.88;97.63
57572;BME280;44459;43.522;24.470;2023-03-16T12:18:38;100038.06;;;4.90;97.48
57572;BME280;44459;43.522;24.470;2023-03-16T12:21:32;100038.81;;;4.85;98.60
57572;BME280;44459;43.522;24.470;2023-03-16T12:24:02;100042.47;;;4.91;98.17
57572;BME280;44459;43.522;24.470;2023-03-16T12:26:31;100037.50;;;5.02;97.89
57572;BME280;44459;43.522;24.470;2023-03-16T12:28:58;100040.94;;;4.99;98.08
57572;BME280;44459;43.522;24.470;2023-03-16T12:31:42;100035.78;;;5.02;98.56
57572;BME280;44459;43.522;24.470;2023-03-16T12:34:24;100039.28;;;5.04;98.05
57572;BME280;44459;43.522;24.470;2023-03-16T12:40:05;100041.22;;;5.12;97.94
57572;BME280;44459;43.522;24.470;2023-03-16T12:45:35;100038.66;;;5.13;97.08
57572;BME280;44459;43.522;24.470;2023-03-16T12:50:30;100051.75;;;5.15;97.81
57572;BME280;44459;43.522;24.470;2023-03-16T12:52:57;100047.41;;;5.14;96.90
57572;BME280;44459;43.522;24.470;2023-03-16T12:55:41;100046.38;;;5.08;97.71
57572;BME280;44459;43.522;24.470;2023-03-16T12:58:09;100055.25;;;5.15;98.08
57572;BME280;44459;43.522;24.470;2023-03-16T13:00:38;100054.50;;;5.21;98.07
57572;BME280;44459;43.522;24.470;2023-03-16T13:03:13;100055.66;;;5.32;98.49
57572;BME280;44459;43.522;24.470;2023-03-16T13:05:50;100060.19;;;5.37;97.70
57572;BME280;44459;43.522;24.470;2023-03-16T13:08:19;100060.19;;;5.37;97.74
57572;BME280;44459;43.522;24.470;2023-03-16T13:11:04;100054.94;;;5.37;97.10
57572;BME280;44459;43.522;24.470;2023-03-16T13:13:31;100064.72;;;5.46;96.53
57572;BME280;44459;43.522;24.470;2023-03-16T13:16:06;100070.91;;;5.49;96.87
57572;BME280;44459;43.522;24.470;2023-03-16T13:18:38;100072.56;;;5.44;94.73
57572;BME280;44459;43.522;24.470;2023-03-16T13:21:58;100077.00;;;5.48;95.22
57572;BME280;44459;43.522;24.470;2023-03-16T13:24:24;100080.50;;;5.49;95.84
57572;BME280;44459;43.522;24.470;2023-03-16T13:27:03;100078.75;;;5.48;95.03
57572;BME280;44459;43.522;24.470;2023-03-16T13:29:31;100090.28;;;5.56;94.62
57572;BME280;44459;43.522;24.470;2023-03-16T13:31:59;100080.75;;;5.58;95.52
57572;BME280;44459;43.522;24.470;2023-03-16T13:34:31;100093.81;;;5.58;94.72
57572;BME280;44459;43.522;24.470;2023-03-16T13:36:58;100090.34;;;5.59;95.21
57572;BME280;44459;43.522;24.470;2023-03-16T13:39:29;100094.81;;;5.63;95.74
57572;BME280;44459;43.522;24.470;2023-03-16T13:44:22;100093.38;;;5.77;95.99
57572;BME280;44459;43.522;24.470;2023-03-16T13:46:48;100079.38;;;5.75;96.28
57572;BME280;44459;43.522;24.470;2023-03-16T13:49:15;100084.63;;;5.75;95.69
57572;BME280;44459;43.522;24.470;2023-03-16T13:51:40;100094.16;;;5.73;94.62
57572;BME280;44459;43.522;24.470;2023-03-16T13:54:20;100102.72;;;5.66;94.26
57572;BME280;44459;43.522;24.470;2023-03-16T13:57:01;100100.09;;;5.66;94.50
57572;BME280;44459;43.522;24.470;2023-03-16T13:59:28;100103.44;;;5.59;95.67
57572;BME280;44459;43.522;24.470;2023-03-16T14:01:59;100108.47;;;5.50;96.13
57572;BME280;44459;43.522;24.470;2023-03-16T14:04:30;100104.00;;;5.46;97.71